Time;durP1;ratioP1;P1;durP2;ratioP2;P2;SDS_P1;SDS_P2;PMS_P1;PMS_P2;Temp;Humidity;BMP_temperature;BMP_pressure;BME280_temperature;BME280_humidity;BME280_pressure;Samples;Min_cycle;Max_cycle;Signal;HPM_P1;HPM_P2
2022/10/13 00:01:49;;;;;;;16.80;6.00;;;;;;;11.52;65.89;93319.44;2051795;69;20189;-77
2022/10/13 00:04:15;;;;;;;12.50;5.93;;;;;;;11.55;65.82;93318.25;2052008;70;20149;-76
2022/10/13 00:06:41;;;;;;;11.00;5.78;;;;;;;10.72;70.88;93321.72;2051994;70;20122;-75
2022/10/13 00:09:07;;;;;;;10.18;5.25;;;;;;;11.22;66.98;93320.94;2052146;70;20145;-76
2022/10/13 00:11:33;;;;;;;13.18;5.78;;;;;;;11.32;66.66;93313.91;2052172;70;20138;-78
2022/10/13 00:14:02;;;;;;;9.98;5.38;;;;;;;11.35;66.26;93314.78;2045865;70;20162;-76
2022/10/13 00:16:31;;;;;;;11.18;5.20;;;;;;;11.35;66.31;93312.69;2051321;70;20219;-77
2022/10/13 00:18:57;;;;;;;16.08;5.05;;;;;;;11.35;65.88;93317.59;2051830;70;20134;-76
2022/10/13 00:21:25;;;;;;;13.45;5.72;;;;;;;11.38;65.60;93324.84;2051979;70;20146;-77
2022/10/13 00:23:55;;;;;;;11.60;5.93;;;;;;;11.23;65.98;93323.16;2051549;70;20637;-76
2022/10/13 00:26:22;;;;;;;10.57;5.25;;;;;;;11.26;66.25;93326.84;2051274;69;20153;-77
2022/10/13 00:28:49;;;;;;;10.60;5.22;;;;;;;11.25;65.67;93322.56;2051638;69;20170;-77
2022/10/13 00:31:17;;;;;;;12.20;6.00;;;;;;;11.16;66.23;93319.16;2051468;70;20165;-77
2022/10/13 00:33:43;;;;;;;11.20;5.35;;;;;;;11.18;65.68;93327.78;2051591;69;20134;-76
2022/10/13 00:36:09;;;;;;;20.50;5.35;;;;;;;11.25;65.43;93319.72;2050761;70;20201;-76
2022/10/13 00:38:34;;;;;;;13.02;6.03;;;;;;;11.14;66.39;93321.88;2048274;70;20213;-77
2022/10/13 00:41:00;;;;;;;11.95;5.25;;;;;;;11.18;65.94;93318.59;2051381;70;20158;-77
2022/10/13 00:43:56;;;;;;;11.60;6.30;;;;;;;11.24;65.57;93313.34;2051301;70;20158;-77
2022/10/13 00:46:24;;;;;;;20.52;9.90;;;;;;;11.11;66.37;93308.97;2051150;70;20154;-77
2022/10/13 00:49:00;;;;;;;25.17;8.25;;;;;;;11.14;66.95;93310.59;2053624;70;20226;-76
2022/10/13 00:51:30;;;;;;;18.83;7.45;;;;;;;11.13;66.42;93320.41;2048289;70;20610;-77
2022/10/13 00:53:58;;;;;;;12.93;6.22;;;;;;;11.19;65.08;93317.25;2045359;70;20166;-77
2022/10/13 00:56:26;;;;;;;18.95;7.57;;;;;;;11.08;66.30;93315.06;2048394;70;20142;-76
2022/10/13 00:58:53;;;;;;;16.60;7.20;;;;;;;11.12;65.71;93320.97;2051300;70;20222;-76
2022/10/13 01:01:19;;;;;;;16.67;7.40;;;;;;;11.13;66.14;93314.75;2051300;70;20617;-77
2022/10/13 01:03:45;;;;;;;37.67;17.23;;;;;;;10.99;66.73;93310.94;2051292;70;20158;-76
2022/10/13 01:06:13;;;;;;;25.10;10.20;;;;;;;11.04;65.94;93301.44;2051433;70;20215;-76
2022/10/13 01:08:38;;;;;;;23.98;11.63;;;;;;;11.03;66.21;93299.22;2051347;70;20188;-76
2022/10/13 01:11:33;;;;;;;22.73;10.38;;;;;;;11.05;65.38;93299.38;2047928;70;20494;-76
2022/10/13 01:14:11;;;;;;;25.73;10.80;;;;;;;11.02;65.75;93294.94;2051289;70;20198;-75
2022/10/13 01:16:54;;;;;;;20.05;9.45;;;;;;;10.98;66.04;93292.56;2051007;70;20138;-76
2022/10/13 01:19:56;;;;;;;16.35;7.95;;;;;;;10.97;65.78;93293.19;2051291;70;20222;-76
2022/10/13 01:22:31;;;;;;;14.70;7.78;;;;;;;10.96;65.51;93292.44;2051056;70;20138;-76
2022/10/13 01:25:09;;;;;;;19.05;7.15;;;;;;;10.93;66.39;93290.81;2051419;70;20337;-76
2022/10/13 01:27:48;;;;;;;13.02;6.25;;;;;;;10.93;65.50;93300.00;2051355;70;20598;-77
2022/10/13 01:30:17;;;;;;;11.85;6.72;;;;;;;10.80;66.48;93311.75;2051436;70;20566;-77
2022/10/13 01:33:04;;;;;;;11.90;5.57;;;;;;;10.78;66.20;93319.34;2051668;70;20137;-76
2022/10/13 01:35:55;;;;;;;13.15;5.60;;;;;;;10.81;66.05;93318.13;2050863;70;20582;-76
2022/10/13 01:38:39;;;;;;;15.38;5.55;;;;;;;10.80;66.11;93311.75;2050781;70;20311;-77
2022/10/13 01:41:08;;;;;;;13.65;6.10;;;;;;;10.81;66.08;93309.69;2050772;70;20532;-77
2022/10/13 01:43:39;;;;;;;20.50;7.30;;;;;;;10.73;66.92;93292.97;2051691;70;20224;-77
2022/10/13 01:46:08;;;;;;;15.10;8.27;;;;;;;10.84;65.21;93295.13;2051307;70;20158;-77
2022/10/13 01:48:38;;;;;;;29.00;13.15;;;;;;;10.72;67.00;93296.38;2051419;70;20162;-77
2022/10/13 01:51:08;;;;;;;25.48;11.23;;;;;;;10.66;66.75;93303.06;2051337;69;20143;-77
2022/10/13 01:53:34;;;;;;;25.85;11.70;;;;;;;10.69;65.95;93303.94;2050842;70;20134;-77
2022/10/13 01:56:01;;;;;;;28.35;11.25;;;;;;;10.63;67.00;93298.63;2051478;70;20225;-77
2022/10/13 01:58:30;;;;;;;20.20;10.32;;;;;;;10.62;67.31;93299.22;2051001;70;20161;-76
2022/10/13 02:01:22;;;;;;;26.17;11.07;;;;;;;10.62;66.61;93299.97;2047899;70;20131;-77
2022/10/13 02:03:54;;;;;;;31.65;14.88;;;;;;;10.59;66.56;93301.16;2050614;70;20151;-76
2022/10/13 02:06:27;;;;;;;46.78;21.17;;;;;;;10.55;66.95;93297.34;2050851;70;20131;-76
2022/10/13 02:09:06;;;;;;;32.13;13.30;;;;;;;10.54;67.60;93305.03;2051573;70;20245;-76
2022/10/13 02:11:33;;;;;;;25.00;11.30;;;;;;;10.51;66.83;93308.31;2048460;70;20544;-77
2022/10/13 02:14:08;;;;;;;30.77;13.40;;;;;;;10.53;66.42;93308.44;2051421;70;20182;-77
2022/10/13 02:16:39;;;;;;;28.48;12.95;;;;;;;10.50;67.01;93304.00;2051128;70;20241;-75
2022/10/13 02:19:06;;;;;;;19.70;9.32;;;;;;;10.53;66.49;93308.44;2051223;70;20169;-76
2022/10/13 02:21:32;;;;;;;27.98;11.90;;;;;;;10.13;68.90;93312.63;2050632;70;20605;-75
2022/10/13 02:24:04;;;;;;;23.77;10.48;;;;;;;10.16;68.13;93311.44;2050606;70;20614;-77
2022/10/13 02:26:32;;;;;;;23.08;11.25;;;;;;;10.23;67.86;93313.38;2051178;70;20146;-77
2022/10/13 02:29:15;;;;;;;22.25;10.50;;;;;;;10.28;67.58;93309.53;2053307;70;20174;-77
2022/10/13 02:31:45;;;;;;;21.90;10.63;;;;;;;10.19;67.90;93318.69;2051102;70;20231;-77
2022/10/13 02:34:12;;;;;;;18.67;9.13;;;;;;;10.08;67.64;93328.50;2048011;70;20165;-76
2022/10/13 02:36:39;;;;;;;17.92;8.25;;;;;;;10.11;67.48;93326.53;2051328;70;20212;-76
2022/10/13 02:39:06;;;;;;;15.23;7.50;;;;;;;10.15;67.32;93305.06;2051406;70;20166;-77
2022/10/13 02:41:32;;;;;;;16.58;7.82;;;;;;;10.12;67.04;93309.06;2051104;70;20161;-77
2022/10/13 02:43:58;;;;;;;18.65;8.48;;;;;;;10.16;67.30;93297.38;2051143;70;20196;-77
2022/10/13 02:46:33;;;;;;;13.75;6.70;;;;;;;10.18;66.80;93300.34;2051543;70;20150;-77
2022/10/13 02:48:59;;;;;;;17.60;7.82;;;;;;;10.28;66.82;93308.78;2051743;70;20173;-77
2022/10/13 02:51:27;;;;;;;19.90;7.22;;;;;;;10.25;66.97;93295.91;2051769;70;20150;-78
2022/10/13 02:53:52;;;;;;;17.08;6.88;;;;;;;10.26;66.71;93303.75;2051629;70;20572;-76
2022/10/13 02:56:18;;;;;;;13.27;5.57;;;;;;;10.21;67.25;93301.22;2051385;70;20181;-76
2022/10/13 02:58:44;;;;;;;18.63;7.88;;;;;;;10.28;66.84;93305.97;2048371;70;20150;-76
2022/10/13 03:01:12;;;;;;;24.05;6.93;;;;;;;10.21;67.57;93301.94;2051454;70;20142;-77
2022/10/13 03:03:38;;;;;;;14.57;6.20;;;;;;;10.24;66.08;93297.22;2051760;70;20150;-76
2022/10/13 03:06:04;;;;;;;16.50;6.18;;;;;;;10.23;66.83;93307.75;2051798;70;20147;-77
2022/10/13 03:08:35;;;;;;;12.23;5.20;;;;;;;10.27;67.00;93299.63;2051671;70;20151;-77
2022/10/13 03:11:01;;;;;;;8.63;4.03;;;;;;;10.30;65.82;93294.84;2051640;70;20242;-76
2022/10/13 03:13:27;;;;;;;10.43;4.22;;;;;;;10.33;66.30;93290.84;2053839;70;20146;-77
2022/10/13 03:15:52;;;;;;;10.45;5.18;;;;;;;9.29;71.44;93297.34;2051458;70;20158;-77
2022/10/13 03:18:18;;;;;;;9.13;4.75;;;;;;;9.76;69.29;93293.13;2048351;70;20225;-77
2022/10/13 03:20:44;;;;;;;8.82;4.75;;;;;;;9.89;68.35;93289.84;2048436;70;20146;-77
2022/10/13 03:23:09;;;;;;;15.27;4.97;;;;;;;9.97;68.09;93291.78;2051568;70;20185;-77
2022/10/13 03:25:36;;;;;;;9.30;4.88;;;;;;;10.05;67.62;93286.72;2051708;70;20141;-77
2022/10/13 03:28:01;;;;;;;8.60;4.85;;;;;;;9.92;67.95;93283.03;2051640;70;20589;-76
2022/10/13 03:30:27;;;;;;;12.38;5.38;;;;;;;9.99;67.11;93278.59;2050998;70;20146;-77
2022/10/13 03:32:53;;;;;;;20.02;9.45;;;;;;;9.93;67.66;93276.06;2051159;70;20153;-77
2022/10/13 03:35:21;;;;;;;20.25;11.48;;;;;;;9.96;67.80;93270.59;2051684;70;20537;-77
2022/10/13 03:37:47;;;;;;;19.88;9.82;;;;;;;9.93;67.59;93264.09;2051840;70;20213;-77
2022/10/13 03:40:13;;;;;;;22.55;9.73;;;;;;;9.84;67.86;93270.47;2051658;70;20603;-77
2022/10/13 03:42:39;;;;;;;13.13;7.45;;;;;;;9.93;68.37;93270.44;2053774;70;20158;-77
2022/10/13 03:45:06;;;;;;;13.27;6.13;;;;;;;9.83;68.65;93277.41;2051536;70;20150;-76
2022/10/13 03:47:35;;;;;;;13.55;5.82;;;;;;;9.35;71.21;93278.88;2051560;70;20569;-77
2022/10/13 03:50:01;;;;;;;16.63;5.75;;;;;;;9.60;69.40;93280.66;2050994;70;20174;-77
2022/10/13 03:52:26;;;;;;;13.63;5.10;;;;;;;9.79;68.45;93280.66;2051698;70;20178;-77
2022/10/13 03:54:52;;;;;;;11.57;5.03;;;;;;;9.81;67.95;93277.28;2051681;70;20482;-76
2022/10/13 03:57:18;;;;;;;12.95;4.97;;;;;;;9.79;67.59;93283.47;2051474;70;20206;-76
2022/10/13 03:59:44;;;;;;;12.40;5.07;;;;;;;9.72;67.84;93281.56;2051798;70;20244;-76
2022/10/13 04:02:09;;;;;;;9.05;4.88;;;;;;;9.73;68.00;93283.03;2051445;70;20563;-76
2022/10/13 04:04:36;;;;;;;11.40;5.72;;;;;;;9.72;68.14;93287.19;2051636;70;20158;-77
2022/10/13 04:07:02;;;;;;;16.38;7.45;;;;;;;9.75;67.87;93282.44;2051517;70;20154;-77
2022/10/13 04:09:28;;;;;;;16.52;7.70;;;;;;;9.78;68.01;93287.63;2051684;70;20462;-77
2022/10/13 04:11:54;;;;;;;15.70;7.88;;;;;;;9.75;68.07;93294.44;2051103;70;20158;-76
2022/10/13 04:14:19;;;;;;;15.07;6.93;;;;;;;9.77;67.66;93291.78;2051756;70;20555;-77
2022/10/13 04:16:45;;;;;;;13.10;6.88;;;;;;;9.69;67.92;93294.00;2051446;70;20176;-77
2022/10/13 04:19:14;;;;;;;11.25;6.30;;;;;;;9.71;67.47;93290.56;2051602;70;20169;-77
2022/10/13 04:21:41;;;;;;;18.02;9.10;;;;;;;9.74;67.77;93290.16;2051013;70;20194;-76
2022/10/13 04:24:09;;;;;;;17.08;7.22;;;;;;;9.71;67.34;93290.56;2053717;70;20153;-76
2022/10/13 04:26:35;;;;;;;11.38;7.15;;;;;;;9.68;67.45;93289.72;2053680;70;20134;-77
2022/10/13 04:29:07;;;;;;;18.75;7.32;;;;;;;9.68;67.59;93289.72;2051729;70;20150;-76
2022/10/13 04:31:32;;;;;;;12.80;6.47;;;;;;;9.65;67.59;93293.69;2051340;70;20174;-77
2022/10/13 04:33:58;;;;;;;15.25;6.45;;;;;;;9.62;67.29;93287.19;2051620;70;20530;-77
2022/10/13 04:36:24;;;;;;;22.10;9.55;;;;;;;9.67;67.40;93286.16;2051433;70;20146;-76
2022/10/13 04:38:51;;;;;;;19.10;8.45;;;;;;;9.62;67.74;93292.06;2051459;69;20482;-76
2022/10/13 04:41:18;;;;;;;17.92;8.82;;;;;;;9.59;66.90;93290.44;2051376;70;20585;-76
2022/10/13 04:43:48;;;;;;;57.20;25.52;;;;;;;9.59;67.30;93293.25;2048174;70;20213;-75
2022/10/13 04:46:17;;;;;;;32.92;14.57;;;;;;;9.50;67.46;93289.09;2048007;70;20205;-75
2022/10/13 04:48:42;;;;;;;31.60;14.57;;;;;;;9.49;67.96;93281.28;2051449;70;20153;-76
2022/10/13 04:51:14;;;;;;;26.58;12.88;;;;;;;9.49;67.52;93284.81;2051482;69;20154;-76
2022/10/13 04:53:40;;;;;;;36.65;15.52;;;;;;;9.41;68.29;93282.13;2051598;70;20704;-76
2022/10/13 04:56:11;;;;;;;41.28;17.00;;;;;;;9.41;68.04;93287.75;2051468;70;20221;-76
2022/10/13 04:58:38;;;;;;;42.00;18.92;;;;;;;9.37;68.24;93281.84;2051383;70;20146;-76
2022/10/13 05:01:05;;;;;;;38.42;17.65;;;;;;;9.38;67.66;93285.38;2051280;70;20178;-76
2022/10/13 05:03:32;;;;;;;38.53;16.40;;;;;;;9.33;68.12;93281.53;2051351;70;20214;-77
2022/10/13 05:05:58;;;;;;;26.42;12.60;;;;;;;9.25;67.83;93286.53;2051483;70;20239;-75
2022/10/13 05:08:24;;;;;;;25.00;11.43;;;;;;;9.42;67.02;93291.31;2047960;70;20171;-77
2022/10/13 05:11:00;;;;;;;26.15;12.73;;;;;;;9.41;67.44;93287.75;2051366;70;20174;-76
2022/10/13 05:13:28;;;;;;;30.70;12.93;;;;;;;9.33;67.56;93289.97;2051575;70;20670;-76
2022/10/13 05:15:56;;;;;;;25.63;12.00;;;;;;;9.29;68.30;93286.84;2051182;69;20138;-76
2022/10/13 05:18:23;;;;;;;22.63;11.18;;;;;;;9.25;68.29;93285.81;2049257;70;20150;-75
2022/10/13 05:20:49;;;;;;;23.27;11.20;;;;;;;9.30;67.95;93288.34;2047713;70;20142;-75
2022/10/13 05:23:15;;;;;;;33.85;13.63;;;;;;;9.25;68.69;93286.53;2047840;70;20298;-76
2022/10/13 05:25:41;;;;;;;26.23;12.13;;;;;;;9.27;68.24;93283.16;2044444;70;20162;-76
2022/10/13 05:28:11;;;;;;;21.50;9.80;;;;;;;9.19;70.16;93286.09;2047799;70;20146;-75
2022/10/13 05:30:37;;;;;;;18.17;7.35;;;;;;;9.32;68.84;93285.66;2047826;70;20157;-77
2022/10/13 05:33:02;;;;;;;9.18;5.28;;;;;;;9.18;70.62;93292.31;2047708;70;20223;-75
2022/10/13 05:35:28;;;;;;;11.75;4.85;;;;;;;9.50;68.16;93279.94;2047732;70;20150;-76
2022/10/13 05:37:54;;;;;;;10.60;4.65;;;;;;;9.41;70.01;93281.41;2044370;70;20602;-76
2022/10/13 05:40:22;;;;;;;13.30;6.50;;;;;;;9.57;68.77;93276.97;2047634;70;20194;-76
2022/10/13 05:42:54;;;;;;;9.85;4.75;;;;;;;9.61;66.81;93276.53;2047599;70;20150;-75
2022/10/13 05:45:20;;;;;;;8.38;4.15;;;;;;;9.63;67.88;93280.25;2047491;70;20175;-75
2022/10/13 05:47:46;;;;;;;8.15;4.10;;;;;;;9.68;68.31;93276.38;2047707;70;20163;-80
2022/10/13 05:50:12;;;;;;;12.63;3.90;;;;;;;9.62;68.29;93281.56;2047748;70;20600;-77
2022/10/13 05:52:40;;;;;;;8.50;3.83;;;;;;;9.70;67.75;93287.03;2047663;70;20162;-78
2022/10/13 05:55:09;;;;;;;17.05;7.78;;;;;;;9.52;68.43;93285.69;2047645;70;20178;-76
2022/10/13 05:57:49;;;;;;;13.18;6.97;;;;;;;9.58;68.22;93286.16;2047033;70;20316;-76
2022/10/13 06:00:18;;;;;;;15.13;7.28;;;;;;;9.59;67.90;93287.63;2047698;70;20176;-80
2022/10/13 06:02:43;;;;;;;12.13;6.63;;;;;;;9.49;68.82;93282.00;2047568;70;20226;-76
2022/10/13 06:05:16;;;;;;;16.50;7.72;;;;;;;9.38;69.43;93288.94;2047748;70;20288;-79
2022/10/13 06:07:43;;;;;;;7.07;4.72;;;;;;;9.58;67.69;93292.53;2047799;70;20669;-77
2022/10/13 06:10:10;;;;;;;10.63;4.60;;;;;;;9.65;67.60;93283.19;2047686;70;20510;-80
2022/10/13 06:12:36;;;;;;;6.32;3.95;;;;;;;9.76;67.09;93289.53;2047726;70;20215;-77
2022/10/13 06:15:03;;;;;;;10.65;4.10;;;;;;;9.66;67.18;93281.09;2047664;70;20166;-78
2022/10/13 06:17:29;;;;;;;7.78;3.92;;;;;;;9.65;67.03;93282.44;2044261;70;20253;-79
2022/10/13 06:19:54;;;;;;;9.82;4.35;;;;;;;9.67;67.96;93286.16;2049686;70;20139;-78
2022/10/13 06:22:20;;;;;;;8.02;4.22;;;;;;;9.78;68.02;93282.00;2047622;70;20142;-79
2022/10/13 06:24:46;;;;;;;13.98;4.55;;;;;;;9.77;67.31;93280.53;2044555;70;20249;-77
2022/10/13 06:27:12;;;;;;;11.68;4.20;;;;;;;9.84;66.19;93284.50;2047697;70;20237;-77
2022/10/13 06:29:38;;;;;;;14.13;4.60;;;;;;;9.80;67.82;93290.56;2047484;70;20528;-77
2022/10/13 06:32:04;;;;;;;12.02;4.03;;;;;;;9.82;66.90;93290.75;2047470;70;20154;-78
2022/10/13 06:34:29;;;;;;;14.75;7.03;;;;;;;9.80;68.06;93303.91;2044154;70;20594;-76
2022/10/13 06:36:55;;;;;;;15.07;7.35;;;;;;;9.82;66.58;93299.19;2047488;70;20195;-78
2022/10/13 06:39:22;;;;;;;14.80;7.80;;;;;;;9.85;66.73;93300.81;2047585;70;20486;-77
2022/10/13 06:41:49;;;;;;;16.42;6.97;;;;;;;9.82;66.84;93298.44;2047545;70;20223;-78
2022/10/13 06:44:14;;;;;;;15.98;7.88;;;;;;;9.86;67.01;93298.75;2047564;70;20147;-77
2022/10/13 06:46:40;;;;;;;19.85;7.95;;;;;;;9.88;66.26;93298.88;2047667;70;20162;-79
2022/10/13 06:49:05;;;;;;;17.50;6.70;;;;;;;9.92;65.78;93299.16;2047812;70;20155;-79
2022/10/13 06:51:31;;;;;;;9.70;4.82;;;;;;;9.98;65.07;93301.69;2047550;70;20483;-79
2022/10/13 06:53:58;;;;;;;12.38;4.60;;;;;;;9.89;67.00;93291.91;2047614;70;20187;-76
2022/10/13 06:56:24;;;;;;;8.82;5.05;;;;;;;10.04;64.92;93290.88;2047488;70;20146;-79
2022/10/13 06:58:50;;;;;;;7.88;4.95;;;;;;;10.01;66.60;93292.81;2047069;70;20146;-76
2022/10/13 07:01:15;;;;;;;16.42;4.90;;;;;;;10.02;65.96;93287.91;2047438;70;20586;-77
2022/10/13 07:03:41;;;;;;;12.68;5.65;;;;;;;10.07;66.40;93284.06;2047684;70;20154;-79
2022/10/13 07:06:07;;;;;;;10.10;4.30;;;;;;;10.15;65.98;93281.81;2047534;70;20226;-76
2022/10/13 07:08:33;;;;;;;13.13;7.18;;;;;;;9.97;66.91;93280.50;2047546;70;20146;-78
2022/10/13 07:11:05;;;;;;;15.90;7.95;;;;;;;9.74;68.46;93286.59;2047563;70;20163;-80
2022/10/13 07:13:30;;;;;;;15.77;8.32;;;;;;;9.97;67.57;93281.25;2047510;70;20161;-79
2022/10/13 07:15:56;;;;;;;18.10;8.35;;;;;;;10.06;66.98;93283.31;2047271;70;20155;-79
2022/10/13 07:18:22;;;;;;;13.38;9.48;;;;;;;10.09;66.52;93281.41;2047487;70;20491;-80
2022/10/13 07:20:47;;;;;;;21.20;11.13;;;;;;;10.13;66.89;93281.69;2047808;70;20170;-79
2022/10/13 07:23:13;;;;;;;16.83;9.88;;;;;;;10.16;66.53;93275.59;2047482;70;20142;-80
2022/10/13 07:25:38;;;;;;;19.55;9.48;;;;;;;10.16;66.93;93275.59;2044439;70;20147;-79
2022/10/13 07:28:05;;;;;;;14.23;9.23;;;;;;;10.12;67.77;93266.88;2047518;70;20597;-78
2022/10/13 07:30:31;;;;;;;11.93;5.63;;;;;;;10.12;66.75;93266.88;2047061;70;20241;-79
2022/10/13 07:32:57;;;;;;;13.90;6.47;;;;;;;10.19;66.16;93262.41;2047752;70;20159;-76
2022/10/13 07:35:24;;;;;;;20.23;5.75;;;;;;;10.29;66.33;93263.16;2048262;70;20150;-76
2022/10/13 07:37:51;;;;;;;8.48;4.13;;;;;;;10.33;64.86;93259.91;2048057;70;20194;-76
2022/10/13 07:40:17;;;;;;;15.02;3.88;;;;;;;10.32;65.70;93259.16;2048220;70;20584;-79
2022/10/13 07:42:43;;;;;;;11.88;3.50;;;;;;;10.42;66.71;93247.88;2050172;70;20178;-78
2022/10/13 07:45:09;;;;;;;16.23;5.45;;;;;;;10.36;66.46;93255.91;2047993;70;20138;-79
2022/10/13 07:47:35;;;;;;;10.18;5.63;;;;;;;10.51;64.92;93255.56;2048089;70;20175;-80
2022/10/13 07:50:00;;;;;;;12.23;6.30;;;;;;;10.55;65.70;93257.91;2047886;70;20151;-79
2022/10/13 07:52:26;;;;;;;10.55;4.63;;;;;;;10.56;65.02;93259.38;2048008;70;20614;-79
2022/10/13 07:54:52;;;;;;;15.15;7.00;;;;;;;10.34;66.96;93248.03;2048071;70;20195;-76
2022/10/13 07:57:18;;;;;;;12.15;7.60;;;;;;;10.24;67.78;93255.00;2047993;70;20522;-79
2022/10/13 07:59:44;;;;;;;12.10;7.45;;;;;;;10.73;64.52;93245.09;2047935;70;20154;-78
2022/10/13 08:02:12;;;;;;;12.70;7.07;;;;;;;11.07;65.35;93241.06;2047809;70;20182;-77
2022/10/13 08:04:38;;;;;;;14.25;8.57;;;;;;;11.13;66.79;93241.50;2048175;70;20185;-76
2022/10/13 08:07:04;;;;;;;19.25;10.48;;;;;;;11.36;67.81;93234.50;2048027;70;20581;-78
2022/10/13 08:09:30;;;;;;;24.67;12.30;;;;;;;12.07;67.30;93236.34;2048077;70;20333;-78
2022/10/13 08:11:57;;;;;;;17.85;10.00;;;;;;;12.46;65.32;93227.44;2047902;70;20141;-78
2022/10/13 08:14:22;;;;;;;15.50;8.70;;;;;;;12.86;65.02;93225.66;2047886;70;20138;-79
2022/10/13 08:16:49;;;;;;;19.30;10.40;;;;;;;13.13;63.52;93216.66;2047908;70;20220;-78
2022/10/13 08:19:16;;;;;;;22.33;11.88;;;;;;;13.63;63.82;93210.44;2048230;70;20151;-78
2022/10/13 08:21:42;;;;;;;19.50;12.25;;;;;;;14.09;62.01;93211.63;2048026;70;20257;-79
2022/10/13 08:24:11;;;;;;;20.17;11.32;;;;;;;14.36;60.82;93210.97;2047899;70;20598;-76
2022/10/13 08:26:37;;;;;;;13.23;6.25;;;;;;;14.28;58.35;93207.69;2050134;70;20145;-76
2022/10/13 08:29:03;;;;;;;11.20;5.43;;;;;;;14.70;58.54;93211.41;2050285;70;20147;-77
2022/10/13 08:31:28;;;;;;;8.55;4.72;;;;;;;14.98;58.02;93212.19;2047873;70;20146;-77
2022/10/13 08:33:54;;;;;;;11.70;4.78;;;;;;;15.05;57.36;93204.75;2044663;70;20162;-76
2022/10/13 08:36:20;;;;;;;11.00;4.50;;;;;;;15.07;56.54;93213.34;2050091;70;20170;-77
2022/10/13 08:38:46;;;;;;;8.50;4.57;;;;;;;15.45;56.20;93197.59;2047992;70;20605;-79
2022/10/13 08:41:23;;;;;;;5.95;3.92;;;;;;;15.60;54.68;93196.94;2047797;70;20546;-77
2022/10/13 08:43:54;;;;;;;10.90;4.22;;;;;;;15.89;54.40;93201.91;2047891;70;20138;-78
2022/10/13 08:46:27;;;;;;;6.25;3.92;;;;;;;16.22;53.74;93192.16;2047465;70;20240;-78
2022/10/13 08:48:55;;;;;;;;;;;;;;;16.16;53.13;93194.69;2047859;70;20482;-77
2022/10/13 08:51:23;;;;;;;8.27;3.72;;;;;;;16.29;52.80;93196.75;2047646;70;20478;-78
2022/10/13 08:53:50;;;;;;;7.05;3.13;;;;;;;16.52;52.95;93201.38;2047930;70;20420;-78
2022/10/13 08:56:32;;;;;;;4.15;2.70;;;;;;;16.68;51.66;93198.56;2047849;70;20544;-79
2022/10/13 08:59:00;;;;;;;7.72;2.88;;;;;;;16.78;50.78;93196.19;2047201;70;20154;-79
2022/10/13 09:01:29;;;;;;;6.22;2.90;;;;;;;16.98;51.83;93196.38;2047625;70;20250;-79
2022/10/13 09:04:13;;;;;;;8.52;2.70;;;;;;;17.06;51.18;93196.03;2047693;70;20139;-77
2022/10/13 09:06:44;;;;;;;8.57;3.10;;;;;;;17.13;50.63;93189.22;2047842;70;20143;-77
2022/10/13 09:09:14;;;;;;;6.50;2.50;;;;;;;17.42;49.88;93194.78;2047749;70;20146;-77
2022/10/13 09:11:46;;;;;;;5.95;2.28;;;;;;;17.10;47.72;93191.25;2047728;70;20186;-76
2022/10/13 09:14:28;;;;;;;8.25;2.95;;;;;;;17.75;48.30;93188.38;2047848;70;20142;-77
2022/10/13 09:16:56;;;;;;;10.57;3.45;;;;;;;18.28;47.80;93176.31;2047622;70;20257;-77
2022/10/13 09:19:33;;;;;;;7.07;3.13;;;;;;;18.63;46.26;93180.47;2047645;70;20167;-79
2022/10/13 09:22:29;;;;;;;5.95;2.83;;;;;;;18.38;46.03;93164.56;2047622;70;20249;-79
2022/10/13 09:25:10;;;;;;;6.82;3.33;;;;;;;18.75;46.79;93166.00;2047706;70;20181;-77
2022/10/13 09:27:55;;;;;;;7.82;2.97;;;;;;;19.26;45.18;93162.88;2047854;70;20595;-77
2022/10/13 09:30:25;;;;;;;10.77;3.67;;;;;;;19.35;43.15;93151.75;2047573;70;20186;-77
2022/10/13 09:33:11;;;;;;;8.25;3.17;;;;;;;19.37;44.10;93151.81;2047784;70;20210;-77
2022/10/13 09:35:39;;;;;;;4.70;2.33;;;;;;;20.35;43.90;93150.16;2045569;70;20165;-77
2022/10/13 09:38:19;;;;;;;7.20;2.85;;;;;;;20.72;42.56;93148.44;2048047;70;20138;-78
2022/10/13 09:40:56;;;;;;;8.90;2.80;;;;;;;21.38;40.96;93148.94;2048211;70;20154;-79
2022/10/13 09:43:30;;;;;;;7.47;2.75;;;;;;;21.42;40.10;93145.47;2047998;70;20150;-77
2022/10/13 09:45:58;;;;;;;4.57;2.50;;;;;;;21.87;39.74;93143.78;2048040;70;20181;-79
2022/10/13 09:48:30;;;;;;;8.65;2.83;;;;;;;22.25;39.05;93141.91;2048058;70;20170;-79
2022/10/13 09:50:57;;;;;;;6.65;2.50;;;;;;;22.31;37.77;93130.59;2048222;70;20170;-77
2022/10/13 09:53:34;;;;;;;4.20;2.30;;;;;;;20.75;37.42;93124.19;2048162;70;20598;-79
2022/10/13 09:56:13;;;;;;;6.45;2.45;;;;;;;22.40;37.06;93142.97;2047939;70;20176;-78
2022/10/13 09:58:47;;;;;;;6.10;2.60;;;;;;;22.26;36.68;93122.56;2048135;70;20142;-78
2022/10/13 10:01:22;;;;;;;5.53;2.40;;;;;;;23.00;37.93;93124.97;2047910;70;20147;-78
2022/10/13 10:03:49;;;;;;;4.93;2.20;;;;;;;21.60;37.93;93119.44;2047996;70;20229;-80
2022/10/13 10:06:15;;;;;;;6.97;2.58;;;;;;;21.70;38.03;93120.44;2047963;70;20150;-77
2022/10/13 10:08:50;;;;;;;8.48;2.88;;;;;;;23.04;37.75;93122.19;2047926;70;20176;-79
2022/10/13 10:11:26;;;;;;;7.75;2.95;;;;;;;23.49;37.18;93112.31;2050111;70;20141;-77
2022/10/13 10:13:52;;;;;;;9.63;3.47;;;;;;;23.63;36.91;93117.59;2048042;70;20226;-78
2022/10/13 10:16:30;;;;;;;7.95;3.28;;;;;;;23.11;37.38;93114.44;2047847;70;20484;-79
2022/10/13 10:19:16;;;;;;;5.60;2.80;;;;;;;22.55;36.82;93106.75;2047999;70;20154;-76
2022/10/13 10:21:54;;;;;;;9.40;3.25;;;;;;;22.63;37.67;93109.06;2047840;70;20519;-78
2022/10/13 10:24:36;;;;;;;8.15;3.42;;;;;;;23.91;36.49;93108.06;2047923;70;20166;-78
2022/10/13 10:27:13;;;;;;;9.23;3.45;;;;;;;24.77;35.84;93113.06;2047867;70;20147;-79
2022/10/13 10:29:53;;;;;;;9.75;3.38;;;;;;;24.71;34.78;93102.19;2047902;70;20146;-79
2022/10/13 10:32:37;;;;;;;4.95;2.90;;;;;;;25.17;32.97;93097.78;2047825;70;20622;-78
2022/10/13 10:35:15;;;;;;;6.72;2.88;;;;;;;25.87;32.47;93111.56;2047954;70;20149;-78
2022/10/13 10:38:01;;;;;;;13.27;3.50;;;;;;;25.97;32.04;93090.75;2047775;70;20234;-79
2022/10/13 10:41:05;;;;;;;6.32;2.97;;;;;;;25.27;33.30;93083.50;2047849;70;20222;-79
2022/10/13 10:43:40;;;;;;;10.60;2.80;;;;;;;25.40;31.50;93081.50;2047803;70;20534;-77
2022/10/13 10:46:22;;;;;;;7.97;2.80;;;;;;;25.74;32.56;93075.38;2047831;70;20150;-78
2022/10/13 10:48:52;;;;;;;4.68;2.20;;;;;;;27.23;30.68;93071.47;2047150;70;20693;-77
2022/10/13 10:51:18;;;;;;;7.88;3.13;;;;;;;26.83;30.43;93071.94;2047212;70;20620;-76
2022/10/13 10:54:03;;;;;;;4.28;2.30;;;;;;;27.50;29.90;93060.00;2049308;70;20650;-78
2022/10/13 10:56:41;;;;;;;5.60;2.28;;;;;;;28.62;28.42;93063.03;2051178;70;20166;-77
2022/10/13 10:59:35;;;;;;;5.90;3.05;;;;;;;28.56;28.77;93055.09;2051046;70;20172;-77
2022/10/13 11:02:29;;;;;;;6.03;2.55;;;;;;;27.87;29.22;93052.16;2050915;70;20328;-77
2022/10/13 11:04:56;;;;;;;10.90;2.85;;;;;;;26.57;29.76;93032.09;2051114;70;20205;-79
2022/10/13 11:07:22;;;;;;;8.10;3.10;;;;;;;26.71;29.96;93029.31;2050825;70;20153;-78
2022/10/13 11:09:48;;;;;;;9.75;2.55;;;;;;;28.67;29.12;93029.00;2051820;70;20158;-78
2022/10/13 11:12:21;;;;;;;8.95;2.80;;;;;;;28.51;28.73;93033.38;2051508;70;20157;-78
2022/10/13 11:14:47;;;;;;;10.00;3.00;;;;;;;28.86;28.65;93031.16;2051366;70;20173;-80
2022/10/13 11:17:31;;;;;;;9.25;2.65;;;;;;;27.39;29.35;93026.72;2051518;70;20150;-80
2022/10/13 11:19:57;;;;;;;8.98;2.42;;;;;;;26.82;29.62;93024.31;2051879;70;20229;-78
2022/10/13 11:22:24;;;;;;;8.45;2.55;;;;;;;25.19;31.33;93014.25;2051777;70;20224;-78
2022/10/13 11:25:01;;;;;;;11.88;3.15;;;;;;;24.82;31.99;93016.69;2051788;70;20891;-77
2022/10/13 11:27:39;;;;;;;14.82;3.38;;;;;;;24.49;32.67;93012.66;2051541;70;20574;-79
2022/10/13 11:30:39;;;;;;;9.07;3.05;;;;;;;24.21;31.90;93007.91;2051460;70;20239;-79
2022/10/13 11:33:30;;;;;;;12.77;3.40;;;;;;;24.28;32.45;93011.59;2051584;70;20146;-80
2022/10/13 11:36:49;;;;;;;14.20;3.33;;;;;;;23.32;32.44;93015.75;2051627;70;20203;-80
2022/10/13 11:39:25;;;;;;;9.45;3.15;;;;;;;24.29;33.82;93016.66;2046860;70;20146;-80
2022/10/13 11:42:04;;;;;;;10.35;3.53;;;;;;;23.22;33.92;93013.41;2047180;70;20157;-79
2022/10/13 11:44:54;;;;;;;12.95;3.45;;;;;;;23.55;35.39;93002.53;2047311;70;20257;-79